createdAt,value
2022-09-06T00:01:44.267Z,5.05
2022-09-06T00:04:15.506Z,7.20
2022-09-06T00:06:42.451Z,4.53
2022-09-06T00:09:09.507Z,5.80
2022-09-06T00:11:36.850Z,3.95
2022-09-06T00:14:03.707Z,6.68
2022-09-06T00:16:32.948Z,5.15
2022-09-06T00:18:59.934Z,4.28
2022-09-06T00:21:30.095Z,6.55
2022-09-06T00:23:59.322Z,5.88
2022-09-06T00:26:27.383Z,3.63
2022-09-06T00:28:57.661Z,4.30
2022-09-06T00:31:34.175Z,5.47
2022-09-06T00:34:07.070Z,3.22
2022-09-06T00:36:35.268Z,6.65
2022-09-06T00:39:03.939Z,8.90
2022-09-06T00:41:32.952Z,4.15
2022-09-06T00:43:59.731Z,4.32
2022-09-06T00:46:29.492Z,6.45
2022-09-06T00:49:00.772Z,7.30
2022-09-06T00:51:30.245Z,7.20
2022-09-06T00:54:02.236Z,3.25
2022-09-06T00:56:30.017Z,5.00
2022-09-06T00:58:57.004Z,4.30
2022-09-06T01:01:23.917Z,4.28
2022-09-06T01:03:50.743Z,5.57
2022-09-06T01:06:25.745Z,9.60
2022-09-06T01:09:07.593Z,3.88
2022-09-06T01:11:58.976Z,6.22
2022-09-06T01:14:36.826Z,5.05
2022-09-06T01:17:11.084Z,5.75
2022-09-06T01:20:07.274Z,4.32
2022-09-06T01:22:54.762Z,5.13
2022-09-06T01:25:37.744Z,4.10
2022-09-06T01:28:36.004Z,7.13
2022-09-06T01:31:21.022Z,3.70
2022-09-06T01:33:56.823Z,6.47
2022-09-06T01:36:29.177Z,7.13
2022-09-06T01:38:55.892Z,6.95
2022-09-06T01:41:22.798Z,3.78
2022-09-06T01:43:53.892Z,6.07
2022-09-06T01:46:31.747Z,6.53
2022-09-06T01:49:20.011Z,4.28
2022-09-06T01:52:02.165Z,5.18
2022-09-06T01:54:44.711Z,3.83
2022-09-06T01:57:27.232Z,12.45
2022-09-06T02:00:08.301Z,5.35
2022-09-06T02:02:50.396Z,7.72
2022-09-06T02:05:24.024Z,4.40
2022-09-06T02:07:58.046Z,3.67
2022-09-06T02:10:29.814Z,4.25
2022-09-06T02:13:00.935Z,3.65
2022-09-06T02:15:33.014Z,7.75
2022-09-06T02:18:06.575Z,4.57
2022-09-06T02:20:37.884Z,4.57
2022-09-06T02:25:39.892Z,6.38
2022-09-06T02:28:08.182Z,3.50
2022-09-06T02:30:41.156Z,6.00
2022-09-06T02:33:13.614Z,5.65
2022-09-06T02:35:44.824Z,4.00
2022-09-06T02:38:11.572Z,4.45
2022-09-06T02:40:38.795Z,4.30
2022-09-06T02:43:05.655Z,6.55
2022-09-06T02:45:32.482Z,4.93
2022-09-06T02:48:00.652Z,6.25
2022-09-06T02:50:27.941Z,4.22
2022-09-06T02:53:02.145Z,4.03
2022-09-06T02:55:29.007Z,4.18
2022-09-06T02:57:55.706Z,3.88
2022-09-06T03:00:22.431Z,9.45
2022-09-06T03:02:49.218Z,4.32
2022-09-06T03:05:17.651Z,3.60
2022-09-06T03:07:44.463Z,6.32
2022-09-06T03:10:11.233Z,7.00
2022-09-06T03:12:38.007Z,6.00
2022-09-06T03:15:05.855Z,5.18
2022-09-06T03:17:32.557Z,4.05
2022-09-06T03:19:59.263Z,4.32
2022-09-06T03:22:27.359Z,5.68
2022-09-06T03:24:54.105Z,4.03
2022-09-06T03:27:20.840Z,5.43
2022-09-06T03:29:47.513Z,4.80
2022-09-06T03:32:14.348Z,8.63
2022-09-06T03:34:41.209Z,4.47
2022-09-06T03:37:08.000Z,5.53
2022-09-06T03:39:38.017Z,3.75
2022-09-06T03:42:04.864Z,6.63
2022-09-06T03:44:31.575Z,5.30
2022-09-06T03:46:58.342Z,7.10
2022-09-06T03:49:29.499Z,4.13
2022-09-06T03:51:56.251Z,4.35
2022-09-06T03:54:25.975Z,4.32
2022-09-06T03:56:54.386Z,8.95
2022-09-06T03:59:21.055Z,4.40
2022-09-06T04:01:48.123Z,4.88
2022-09-06T04:04:14.809Z,5.10
2022-09-06T04:06:41.554Z,4.78
2022-09-06T04:09:08.273Z,9.13
2022-09-06T04:11:35.010Z,5.32
2022-09-06T04:14:03.246Z,6.55
2022-09-06T04:19:16.516Z,6.25
2022-09-06T04:21:43.189Z,9.13
2022-09-06T04:24:09.982Z,6.75
2022-09-06T04:26:36.922Z,6.20
2022-09-06T04:29:05.082Z,8.93
2022-09-06T04:31:31.912Z,8.65
2022-09-06T04:33:58.808Z,7.72
2022-09-06T04:36:25.611Z,6.85
2022-09-06T04:38:52.488Z,6.65
2022-09-06T04:41:19.201Z,7.07
2022-09-06T04:43:45.984Z,6.93
2022-09-06T04:46:20.395Z,7.63
2022-09-06T04:48:49.582Z,7.32
2022-09-06T04:51:16.660Z,12.40
2022-09-06T04:53:43.566Z,8.07
2022-09-06T04:56:32.113Z,8.40
2022-09-06T04:58:58.995Z,8.07
2022-09-06T05:01:27.381Z,8.75
2022-09-06T05:03:56.968Z,10.23
2022-09-06T05:06:40.052Z,10.27
2022-09-06T05:09:06.996Z,7.57
2022-09-06T05:11:38.893Z,7.35
2022-09-06T05:14:08.414Z,7.43
2022-09-06T05:16:38.948Z,11.18
2022-09-06T05:19:05.860Z,12.13
2022-09-06T05:21:32.711Z,7.85
2022-09-06T05:23:59.423Z,8.30
2022-09-06T05:26:28.409Z,7.65
2022-09-06T05:28:56.890Z,7.88
2022-09-06T05:31:36.719Z,16.42
2022-09-06T05:34:32.515Z,7.70
2022-09-06T05:37:14.627Z,8.15
2022-09-06T05:39:51.495Z,7.60
2022-09-06T05:45:20.527Z,7.57
2022-09-06T05:47:55.928Z,8.43
2022-09-06T05:50:37.079Z,8.63
2022-09-06T05:53:09.615Z,12.23
2022-09-06T05:55:48.188Z,8.25
2022-09-06T05:58:32.869Z,7.65
2022-09-06T06:01:21.720Z,7.93
2022-09-06T06:04:01.067Z,8.50
2022-09-06T06:06:33.958Z,7.95
2022-09-06T06:09:10.019Z,7.80
2022-09-06T06:11:39.828Z,8.52
2022-09-06T06:14:27.913Z,8.35
2022-09-06T06:16:55.103Z,9.52
2022-09-06T06:19:29.824Z,8.32
2022-09-06T06:22:12.879Z,6.72
2022-09-06T06:24:53.847Z,10.50
2022-09-06T06:27:25.826Z,7.90
2022-09-06T06:30:07.256Z,8.00
2022-09-06T06:32:40.026Z,10.18
2022-09-06T06:35:11.714Z,8.00
2022-09-06T06:38:08.564Z,8.40
2022-09-06T06:40:59.445Z,22.70
2022-09-06T06:43:47.874Z,9.25
2022-09-06T06:46:35.046Z,8.00
2022-09-06T06:49:20.685Z,8.57
2022-09-06T06:51:58.070Z,8.90
2022-09-06T06:54:53.631Z,8.88
2022-09-06T06:57:34.171Z,8.15
2022-09-06T07:00:04.635Z,7.53
2022-09-06T07:02:53.942Z,8.80
2022-09-06T07:08:24.812Z,8.52
2022-09-06T07:11:02.440Z,8.70
2022-09-06T07:13:33.820Z,9.20
2022-09-06T07:24:25.571Z,8.85
2022-09-06T07:29:54.272Z,8.88
2022-09-06T07:32:28.707Z,9.80
2022-09-06T07:35:18.515Z,9.77
2022-09-06T07:38:16.807Z,9.25
2022-09-06T07:41:01.175Z,10.70
2022-09-06T07:43:45.952Z,9.02
2022-09-06T07:46:17.386Z,8.98
2022-09-06T07:51:16.663Z,9.52
2022-09-06T07:54:28.828Z,8.87
2022-09-06T07:56:52.171Z,9.40
2022-09-06T07:59:42.442Z,9.93
2022-09-06T08:02:15.269Z,10.18
2022-09-06T08:04:51.698Z,10.05
2022-09-06T08:10:24.052Z,11.73
2022-09-06T08:13:06.222Z,10.15
2022-09-06T08:15:57.706Z,9.60
2022-09-06T08:18:43.276Z,10.88
2022-09-06T08:21:17.253Z,13.40
2022-09-06T08:23:55.188Z,9.88
2022-09-06T08:26:30.314Z,8.98
2022-09-06T08:29:14.939Z,9.98
2022-09-06T08:31:53.933Z,10.93
2022-09-06T08:34:37.670Z,10.50
2022-09-06T08:37:12.719Z,9.85
2022-09-06T08:40:04.312Z,10.05
2022-09-06T08:45:17.902Z,12.23
2022-09-06T08:48:00.736Z,10.48
2022-09-06T08:51:07.314Z,9.45
2022-09-06T08:54:03.276Z,9.57
2022-09-06T08:57:06.014Z,14.20
2022-09-06T08:59:38.823Z,10.57
2022-09-06T09:02:57.662Z,9.50
2022-09-06T09:05:54.208Z,8.50
2022-09-06T09:08:55.206Z,8.85
2022-09-06T09:11:33.155Z,9.48
2022-09-06T09:14:19.764Z,8.82
2022-09-06T09:17:20.792Z,9.65
2022-09-06T09:20:14.594Z,8.00
2022-09-06T09:23:20.279Z,8.50
2022-09-06T09:26:14.886Z,8.00
2022-09-06T09:29:25.295Z,8.13
2022-09-06T09:32:12.603Z,8.05
2022-09-06T09:38:29.615Z,11.45
2022-09-06T09:41:31.240Z,7.25
2022-09-06T09:44:29.167Z,7.13
2022-09-06T09:49:43.138Z,7.90
2022-09-06T09:52:43.351Z,6.57
2022-09-06T10:07:55.236Z,4.97
2022-09-06T10:10:58.288Z,7.07
2022-09-06T10:13:55.845Z,4.53
2022-09-06T10:20:28.093Z,4.38
2022-09-06T10:37:23.125Z,4.80
2022-09-06T11:07:00.888Z,6.78
2022-09-06T11:10:31.146Z,3.88
2022-09-06T11:32:17.362Z,3.78
2022-09-06T12:05:06.520Z,8.23
2022-09-06T14:12:44.539Z,1.23
2022-09-06T14:32:37.099Z,2.00
2022-09-06T14:50:24.686Z,3.05
2022-09-06T14:53:15.029Z,4.38
2022-09-06T14:56:42.251Z,2.53
2022-09-06T15:02:33.646Z,3.15
2022-09-06T15:05:17.570Z,2.25
2022-09-06T15:27:53.436Z,3.22
2022-09-06T15:47:16.311Z,2.80
2022-09-06T15:50:21.944Z,3.03
2022-09-06T16:07:10.940Z,8.93
2022-09-06T16:10:04.467Z,3.35
2022-09-06T16:23:14.962Z,5.35
2022-09-06T16:32:38.827Z,5.78
2022-09-06T16:35:40.590Z,6.15
2022-09-06T16:41:47.166Z,4.90
2022-09-06T16:48:16.908Z,3.78
2022-09-06T16:54:07.233Z,6.65
2022-09-06T16:56:46.690Z,4.45
2022-09-06T16:59:37.396Z,3.67
2022-09-06T17:02:28.291Z,3.97
2022-09-06T17:05:12.172Z,3.20
2022-09-06T17:07:53.041Z,3.42
2022-09-06T17:11:07.316Z,3.90
2022-09-06T17:13:34.208Z,4.63
2022-09-06T17:16:01.065Z,8.15
2022-09-06T17:18:29.600Z,2.90
2022-09-06T17:20:59.266Z,2.67
2022-09-06T17:23:26.868Z,4.50
2022-09-06T17:26:00.417Z,5.30
2022-09-06T17:28:33.892Z,2.60
2022-09-06T17:31:05.557Z,5.22
2022-09-06T17:33:34.859Z,4.35
2022-09-06T17:36:10.542Z,4.22
2022-09-06T17:38:40.460Z,7.55
2022-09-06T17:41:08.352Z,6.20
2022-09-06T17:43:36.575Z,9.10
2022-09-06T17:46:03.884Z,9.90
2022-09-06T17:48:30.769Z,7.13
2022-09-06T17:51:05.518Z,5.97
2022-09-06T17:53:35.335Z,5.18
2022-09-06T17:56:04.291Z,9.40
2022-09-06T17:58:33.953Z,8.90
2022-09-06T18:01:03.791Z,5.70
2022-09-06T18:03:32.098Z,6.15
2022-09-06T18:06:08.576Z,7.32
2022-09-06T18:08:43.732Z,6.57
2022-09-06T18:11:13.359Z,7.43
2022-09-06T18:24:22.939Z,7.03
2022-09-06T18:40:00.771Z,10.57
2022-09-06T18:42:56.670Z,12.77
2022-09-06T18:45:46.788Z,8.80
2022-09-06T18:48:39.725Z,7.22
2022-09-06T19:01:59.659Z,10.60
2022-09-06T19:05:17.850Z,9.50
2022-09-06T19:14:50.671Z,9.27
2022-09-06T19:17:57.615Z,12.68
2022-09-06T19:20:38.800Z,8.70
2022-09-06T19:26:21.757Z,9.43
2022-09-06T19:29:28.655Z,9.90
2022-09-06T19:32:21.487Z,15.45
2022-09-06T19:57:20.204Z,16.52
2022-09-06T19:59:51.403Z,15.25
2022-09-06T20:04:59.066Z,14.65
2022-09-06T20:07:36.301Z,16.00
2022-09-06T20:13:35.402Z,12.57
2022-09-06T20:22:52.847Z,15.45
2022-09-06T20:25:25.790Z,13.60
2022-09-06T20:27:59.245Z,17.00
2022-09-06T20:33:16.954Z,17.15
2022-09-06T20:35:45.136Z,18.83
2022-09-06T20:38:15.929Z,18.38
2022-09-06T20:40:42.800Z,17.30
2022-09-06T20:43:13.743Z,19.85
2022-09-06T20:45:41.198Z,22.42
2022-09-06T20:48:08.155Z,22.75
2022-09-06T20:50:40.193Z,21.55
2022-09-06T20:53:28.693Z,22.83
2022-09-06T20:55:59.120Z,20.90
2022-09-06T20:58:27.255Z,21.25
2022-09-06T21:00:54.558Z,26.83
2022-09-06T21:03:27.070Z,20.73
2022-09-06T21:05:57.736Z,20.10
2022-09-06T21:08:29.748Z,18.95
2022-09-06T21:11:12.564Z,19.02
2022-09-06T21:13:42.436Z,17.08
2022-09-06T21:16:10.637Z,18.67
2022-09-06T21:18:38.073Z,17.23
2022-09-06T21:21:07.095Z,20.20
2022-09-06T21:23:36.177Z,16.33
2022-09-06T21:26:06.931Z,16.17
2022-09-06T21:28:35.326Z,14.20
2022-09-06T21:31:08.510Z,13.93
2022-09-06T21:34:03.618Z,14.70
2022-09-06T21:36:40.382Z,16.90
2022-09-06T21:39:21.585Z,15.95
2022-09-06T21:41:51.276Z,16.20
2022-09-06T21:44:29.123Z,16.90
2022-09-06T21:47:00.806Z,18.25
2022-09-06T21:49:43.578Z,16.70
2022-09-06T21:52:16.578Z,16.55
2022-09-06T21:54:45.362Z,18.25
2022-09-06T22:00:00.760Z,19.15
2022-09-06T22:02:39.208Z,18.40
2022-09-06T22:05:21.539Z,19.83
2022-09-06T22:07:54.459Z,19.42
2022-09-06T22:10:24.223Z,17.40
2022-09-06T22:12:58.898Z,17.35
2022-09-06T22:18:25.791Z,14.90
2022-09-06T22:21:08.406Z,14.93
2022-09-06T22:23:46.667Z,15.68
2022-09-06T22:26:24.807Z,12.77
2022-09-06T22:29:01.767Z,12.50
2022-09-06T22:31:32.918Z,14.75
2022-09-06T22:34:06.287Z,14.63
2022-09-06T22:36:42.323Z,14.77
2022-09-06T22:39:18.827Z,13.32
2022-09-06T22:41:48.845Z,12.05
2022-09-06T22:44:17.220Z,13.50
2022-09-06T22:46:44.312Z,12.88
2022-09-06T22:49:11.424Z,14.98
2022-09-06T22:51:38.617Z,11.38
2022-09-06T22:54:07.222Z,18.05
2022-09-06T22:56:36.807Z,14.15
2022-09-06T22:59:05.951Z,13.48
2022-09-06T23:01:36.599Z,16.02
2022-09-06T23:04:04.249Z,11.82
2022-09-06T23:06:33.749Z,15.13
2022-09-06T23:09:01.290Z,13.15
2022-09-06T23:11:31.003Z,12.50
2022-09-06T23:14:03.611Z,12.32
2022-09-06T23:16:32.014Z,13.88
2022-09-06T23:19:01.453Z,13.43
2022-09-06T23:21:31.190Z,11.93
2022-09-06T23:23:59.347Z,12.98
2022-09-06T23:26:32.992Z,17.08
2022-09-06T23:28:59.928Z,13.88
2022-09-06T23:31:29.213Z,14.80
2022-09-06T23:34:01.818Z,15.10
2022-09-06T23:36:28.918Z,18.58
2022-09-06T23:38:56.384Z,15.57
2022-09-06T23:41:23.805Z,16.75
2022-09-06T23:43:52.789Z,19.10
2022-09-06T23:46:23.568Z,19.75
2022-09-06T23:48:50.829Z,20.58
2022-09-06T23:51:23.077Z,22.02
2022-09-06T23:53:50.087Z,20.10
2022-09-06T23:56:17.680Z,21.17
2022-09-06T23:58:47.493Z,18.80
